Time;durP1;ratioP1;P1;durP2;ratioP2;P2;SDS_P1;SDS_P2;PMS_P1;PMS_P2;Temp;Humidity;BMP_temperature;BMP_pressure;BME280_temperature;BME280_humidity;BME280_pressure;Samples;Min_cycle;Max_cycle;Signal;HPM_P1;HPM_P2
2023/03/02 08:20:19;;;;;;;46.57;21.07;;;0.40;99.90;;;;;;5113900;27;20277;-79
2023/03/02 09:48:14;;;;;;;52.80;26.13;;;0.90;99.90;;;;;;5137155;27;20791;-79
2023/03/02 09:52:51;;;;;;;58.60;29.03;;;0.90;99.90;;;;;;5134395;27;20277;-79
2023/03/02 09:57:38;;;;;;;48.70;25.23;;;1.00;99.90;;;;;;5133147;27;20292;-79
2023/03/02 10:01:39;;;;;;;54.23;24.80;;;1.20;99.90;;;;;;5133734;27;20271;-80
2023/03/02 10:05:44;;;;;;;47.77;24.93;;;1.20;99.90;;;;;;5133189;27;20729;-80
2023/03/02 10:46:12;;;;;;;45.63;24.80;;;1.20;99.90;;;;;;5075138;28;20657;-81
2023/03/02 10:50:43;;;;;;;47.93;22.90;;;1.20;99.90;;;;;;5136369;27;20655;-81
2023/03/02 11:19:33;;;;;;;48.43;25.17;;;1.50;99.90;;;;;;5136556;27;20744;-79
2023/03/02 11:23:58;;;;;;;73.67;38.63;;;1.60;99.90;;;;;;5075466;28;20551;-81
2023/03/02 11:37:05;;;;;;;44.50;22.67;;;1.40;99.90;;;;;;5137848;27;20313;-80
2023/03/02 11:41:14;;;;;;;47.40;22.90;;;1.40;99.90;;;;;;5135152;27;20278;-80
2023/03/02 11:44:47;;;;;;;41.70;23.17;;;1.40;99.90;;;;;;5135300;27;20676;-80
2023/03/02 11:48:51;;;;;;;43.43;22.53;;;2.40;99.90;;;;;;5114560;27;20462;-81
2023/03/02 12:08:20;;;;;;;38.90;21.03;;;1.60;99.90;;;;;;5133783;27;20291;-81
2023/03/02 12:12:15;;;;;;;42.13;20.70;;;1.60;99.90;;;;;;5135342;27;20267;-80
2023/03/02 12:16:34;;;;;;;39.70;21.53;;;1.70;99.90;;;;;;5135405;27;20271;-81
2023/03/02 12:20:06;;;;;;;38.43;20.33;;;1.60;99.90;;;;;;5135051;27;20267;-81
2023/03/02 12:38:23;;;;;;;63.77;32.00;;;1.10;99.90;;;;;;5114107;27;20551;-81
2023/03/02 13:33:57;;;;;;;52.10;25.07;;;1.80;99.90;;;;;;5135197;27;20271;-81
2023/03/02 13:38:36;;;;;;;39.80;20.10;;;1.90;99.90;;;;;;5135528;27;20287;-80
2023/03/02 13:42:34;;;;;;;40.70;22.23;;;1.80;99.90;;;;;;5135368;27;20275;-81
2023/03/02 13:46:10;;;;;;;45.97;23.23;;;1.90;99.90;;;;;;5135570;27;20267;-81
2023/03/02 13:49:29;;;;;;;43.50;22.23;;;1.90;99.90;;;;;;5135812;27;20277;-81
2023/03/02 13:53:06;;;;;;;41.67;22.20;;;1.90;99.90;;;;;;5134495;27;20272;-81
2023/03/02 13:57:17;;;;;;;44.93;23.47;;;2.00;99.90;;;;;;5136425;27;20294;-82
2023/03/02 14:01:12;;;;;;;42.77;23.10;;;2.10;99.90;;;;;;5136688;27;20728;-82
2023/03/02 14:05:32;;;;;;;45.90;23.67;;;2.10;99.90;;;;;;5136965;27;20282;-82
2023/03/02 14:09:19;;;;;;;46.43;23.63;;;2.20;99.90;;;;;;5136198;27;20585;-81
2023/03/02 14:13:44;;;;;;;40.77;20.53;;;2.20;99.90;;;;;;5135534;27;20612;-81
2023/03/02 14:17:26;;;;;;;47.10;23.77;;;2.20;99.90;;;;;;5135753;27;20289;-81
2023/03/02 14:21:22;;;;;;;44.97;22.47;;;2.10;99.90;;;;;;5136038;27;20271;-81
2023/03/02 14:25:10;;;;;;;51.60;26.20;;;2.20;99.90;;;;;;5136840;27;20268;-81
2023/03/02 14:29:21;;;;;;;44.80;21.30;;;2.30;99.90;;;;;;5137022;27;20271;-81
2023/03/02 14:33:15;;;;;;;39.40;20.37;;;2.40;99.90;;;;;;5135564;27;20277;-81
2023/03/02 14:37:05;;;;;;;42.67;21.50;;;2.40;99.90;;;;;;5074582;28;20601;-81
2023/03/02 14:39:38;;;;;;;43.63;20.17;;;2.50;99.90;;;;;;5075051;28;20763;-81
2023/03/02 14:43:08;;;;;;;39.80;20.27;;;2.50;99.90;;;;;;5135533;27;20278;-81
2023/03/02 14:45:34;;;;;;;40.20;19.73;;;2.40;99.90;;;;;;5136559;28;20416;-81
2023/03/02 14:48:00;;;;;;;42.80;21.60;;;2.40;99.90;;;;;;5127934;28;20207;-82
2023/03/02 14:50:26;;;;;;;42.63;20.90;;;2.60;99.90;;;;;;5137615;27;20175;-82
2023/03/02 14:52:57;;;;;;;49.63;23.43;;;2.70;99.90;;;;;;5136389;28;20175;-81
2023/03/02 14:55:28;;;;;;;66.30;26.53;;;2.60;99.90;;;;;;5134875;28;20178;-81
2023/03/02 14:58:13;;;;;;;50.33;24.43;;;2.70;99.90;;;;;;5135547;28;20183;-81
2023/03/02 15:00:39;;;;;;;58.90;24.27;;;2.60;99.90;;;;;;5136158;27;20389;-82
2023/03/02 15:03:05;;;;;;;48.53;23.63;;;2.60;99.90;;;;;;5135453;28;20179;-83
2023/03/02 15:05:31;;;;;;;55.50;25.20;;;2.50;99.90;;;;;;5135259;28;20844;-82
2023/03/02 15:07:56;;;;;;;52.63;24.33;;;2.60;99.90;;;;;;5133903;27;20256;-83
2023/03/02 15:10:23;;;;;;;45.97;23.50;;;2.70;99.90;;;;;;5134219;27;20173;-82
2023/03/02 15:12:50;;;;;;;48.80;22.60;;;2.70;99.90;;;;;;5132084;28;20203;-82
2023/03/02 15:15:16;;;;;;;52.40;23.83;;;2.70;99.90;;;;;;5132329;28;20447;-82
2023/03/02 15:17:41;;;;;;;55.07;23.10;;;2.70;99.90;;;;;;5131665;28;20203;-82
2023/03/02 15:20:13;;;;;;;48.97;23.07;;;2.60;99.90;;;;;;5132931;27;20633;-82
2023/03/02 15:22:39;;;;;;;53.03;23.40;;;2.50;99.90;;;;;;5132497;27;20207;-82
2023/03/02 15:25:05;;;;;;;52.30;23.00;;;2.50;99.90;;;;;;5131063;28;20333;-82
2023/03/02 15:27:31;;;;;;;42.23;19.00;;;2.40;99.90;;;;;;5132052;27;20202;-82
2023/03/02 15:29:56;;;;;;;37.40;20.30;;;2.40;99.90;;;;;;5130679;28;20605;-82
2023/03/02 15:32:22;;;;;;;47.30;29.03;;;2.40;99.90;;;;;;5131103;27;20649;-82
2023/03/02 15:34:48;;;;;;;46.17;24.03;;;2.50;99.90;;;;;;5133505;28;20205;-82
2023/03/02 15:37:14;;;;;;;46.73;23.60;;;2.50;99.90;;;;;;5134204;27;20215;-82
2023/03/02 15:39:40;;;;;;;42.97;20.87;;;2.50;99.90;;;;;;5134189;27;20220;-82
2023/03/02 15:42:06;;;;;;;35.17;18.50;;;2.50;99.90;;;;;;5134189;27;20464;-82
2023/03/02 15:44:32;;;;;;;48.17;22.53;;;2.50;99.90;;;;;;5133739;27;20254;-82
2023/03/02 15:46:58;;;;;;;79.93;33.50;;;2.40;99.90;;;;;;5132250;28;20202;-81
2023/03/02 15:49:27;;;;;;;58.07;29.37;;;2.30;99.90;;;;;;5132683;28;20416;-81
2023/03/02 15:51:56;;;;;;;52.50;24.30;;;2.40;99.90;;;;;;5132864;28;20423;-81
2023/03/02 15:54:23;;;;;;;38.53;20.33;;;2.50;99.90;;;;;;5123632;28;21023;-82
2023/03/02 15:56:52;;;;;;;36.73;19.30;;;2.50;99.90;;;;;;5118070;28;20437;-83
2023/03/02 15:59:23;;;;;;;55.57;25.07;;;2.30;99.90;;;;;;5118113;28;20424;-81
2023/03/02 16:01:49;;;;;;;32.83;18.17;;;2.30;99.90;;;;;;5119440;28;20457;-81
2023/03/02 16:04:15;;;;;;;35.73;19.73;;;2.20;99.90;;;;;;5120851;28;20426;-81
2023/03/02 16:06:41;;;;;;;37.83;20.47;;;2.10;99.90;;;;;;5118267;28;20282;-81
2023/03/02 16:09:06;;;;;;;40.43;22.57;;;2.10;99.90;;;;;;5118960;28;20168;-81
2023/03/02 16:11:32;;;;;;;56.87;28.67;;;2.20;99.90;;;;;;5117956;28;20190;-81
2023/03/02 16:13:58;;;;;;;53.63;25.83;;;2.20;99.90;;;;;;5117612;28;20233;-81
2023/03/02 16:18:48;;;;;;;91.67;42.07;;;2.40;99.90;;;;;;5134888;27;20283;-81
